createdAt,value
2022-10-05T00:00:14.415Z,15.80
2022-10-05T00:02:44.295Z,15.80
2022-10-05T00:05:21.266Z,15.80
2022-10-05T00:07:49.316Z,15.80
2022-10-05T00:10:20.034Z,15.80
2022-10-05T00:12:49.816Z,16.10
2022-10-05T00:15:19.823Z,15.80
2022-10-05T00:17:49.077Z,15.80
2022-10-05T00:20:20.675Z,15.80
2022-10-05T00:22:49.068Z,15.80
2022-10-05T00:25:19.655Z,15.80
2022-10-05T00:27:54.688Z,15.70
2022-10-05T00:30:23.695Z,15.80
2022-10-05T00:32:58.627Z,15.80
2022-10-05T00:35:29.331Z,16.00
2022-10-05T00:37:58.043Z,15.70
2022-10-05T00:40:36.476Z,15.70
2022-10-05T00:43:20.409Z,15.70
2022-10-05T00:45:51.684Z,15.80
2022-10-05T00:48:29.609Z,15.70
2022-10-05T00:51:10.662Z,15.70
2022-10-05T00:53:44.695Z,16.00
2022-10-05T00:56:23.479Z,15.70
2022-10-05T00:58:58.496Z,15.70
2022-10-05T01:01:33.164Z,15.70
2022-10-05T01:04:14.256Z,15.70
2022-10-05T01:06:50.263Z,15.70
2022-10-05T01:09:25.138Z,15.70
2022-10-05T01:11:59.974Z,15.70
2022-10-05T01:14:33.646Z,15.80
2022-10-05T01:17:09.694Z,15.70
2022-10-05T01:19:57.915Z,15.70
2022-10-05T01:22:39.088Z,15.70
2022-10-05T01:25:21.954Z,15.70
2022-10-05T01:28:02.876Z,15.70
2022-10-05T01:30:35.934Z,15.70
2022-10-05T01:33:13.572Z,15.70
2022-10-05T01:35:50.957Z,16.40
2022-10-05T01:38:32.390Z,15.70
2022-10-05T01:41:09.063Z,15.70
2022-10-05T01:43:45.310Z,15.90
2022-10-05T01:46:24.282Z,15.70
2022-10-05T01:49:06.366Z,15.60
2022-10-05T01:51:44.110Z,15.60
2022-10-05T01:54:20.536Z,15.60
2022-10-05T01:57:03.477Z,15.60
2022-10-05T01:59:46.109Z,15.60
2022-10-05T02:02:18.276Z,15.60
2022-10-05T02:05:03.469Z,15.60
2022-10-05T02:07:36.838Z,15.50
2022-10-05T02:10:15.607Z,15.60
2022-10-05T02:12:44.874Z,15.50
2022-10-05T02:15:18.265Z,15.50
2022-10-05T02:17:49.529Z,15.50
2022-10-05T02:20:23.661Z,15.50
2022-10-05T02:22:55.700Z,15.50
2022-10-05T02:25:28.958Z,16.30
2022-10-05T02:28:02.714Z,15.60
2022-10-05T02:30:35.077Z,16.20
2022-10-05T02:33:05.705Z,14.90
2022-10-05T02:35:33.619Z,16.40
2022-10-05T02:38:10.123Z,15.40
2022-10-05T02:40:46.326Z,15.50
2022-10-05T02:43:25.687Z,15.50
2022-10-05T02:46:02.004Z,15.40
2022-10-05T02:48:43.646Z,15.50
2022-10-05T02:51:19.687Z,15.40
2022-10-05T02:54:00.234Z,15.70
2022-10-05T02:56:33.296Z,15.50
2022-10-05T02:59:10.161Z,15.50
2022-10-05T03:01:45.476Z,15.50
2022-10-05T03:04:26.997Z,15.40
2022-10-05T03:07:04.639Z,15.50
2022-10-05T03:09:38.451Z,15.50
2022-10-05T03:12:18.846Z,15.40
2022-10-05T03:14:58.935Z,15.50
2022-10-05T03:17:34.437Z,15.40
2022-10-05T03:20:18.265Z,15.50
2022-10-05T03:22:51.514Z,15.40
2022-10-05T03:25:35.114Z,15.40
2022-10-05T03:28:08.286Z,15.50
2022-10-05T03:30:45.347Z,15.40
2022-10-05T03:33:22.618Z,15.70
2022-10-05T03:35:58.346Z,15.50
2022-10-05T03:38:35.555Z,15.40
2022-10-05T03:41:12.148Z,15.50
2022-10-05T03:44:19.737Z,15.60
2022-10-05T03:47:01.906Z,15.40
2022-10-05T03:49:50.646Z,15.40
2022-10-05T03:52:23.229Z,15.40
2022-10-05T03:54:55.696Z,15.30
2022-10-05T03:57:27.067Z,15.40
2022-10-05T04:00:01.505Z,15.40
2022-10-05T04:02:32.644Z,15.40
2022-10-05T04:05:06.231Z,15.30
2022-10-05T04:07:42.767Z,15.50
2022-10-05T04:10:18.681Z,15.40
2022-10-05T04:12:51.309Z,15.40
2022-10-05T04:15:28.953Z,15.40
2022-10-05T04:18:02.700Z,15.40
2022-10-05T04:20:37.170Z,15.30
2022-10-05T04:23:15.751Z,15.40
2022-10-05T04:25:47.223Z,15.30
2022-10-05T04:28:22.638Z,15.30
2022-10-05T04:30:53.935Z,15.30
2022-10-05T04:33:22.941Z,15.30
2022-10-05T04:36:03.548Z,15.30
2022-10-05T04:38:44.623Z,15.30
2022-10-05T04:41:26.735Z,15.30
2022-10-05T04:44:11.557Z,15.30
2022-10-05T04:46:51.255Z,15.30
2022-10-05T04:49:42.777Z,15.30
2022-10-05T04:52:18.725Z,15.30
2022-10-05T04:55:00.279Z,15.20
2022-10-05T04:57:35.419Z,15.30
2022-10-05T05:00:11.086Z,15.20
2022-10-05T05:03:04.647Z,15.20
2022-10-05T05:06:04.947Z,15.20
2022-10-05T05:08:45.016Z,15.20
2022-10-05T05:11:24.662Z,15.20
2022-10-05T05:14:08.771Z,15.10
2022-10-05T05:16:39.651Z,15.10
2022-10-05T05:19:31.605Z,15.10
2022-10-05T05:22:05.337Z,15.10
2022-10-05T05:24:46.162Z,15.10
2022-10-05T05:27:39.845Z,15.10
2022-10-05T05:30:18.953Z,15.10
2022-10-05T05:32:55.491Z,15.10
2022-10-05T05:35:50.850Z,15.10
2022-10-05T05:38:29.307Z,15.10
2022-10-05T05:41:11.487Z,15.10
2022-10-05T05:43:53.289Z,15.10
2022-10-05T05:46:45.025Z,15.10
2022-10-05T05:49:20.323Z,15.10
2022-10-05T05:51:55.841Z,15.10
2022-10-05T05:54:30.133Z,15.10
2022-10-05T05:57:10.977Z,15.10
2022-10-05T05:59:51.594Z,15.10
2022-10-05T06:02:24.339Z,15.20
2022-10-05T06:04:58.046Z,15.20
2022-10-05T06:07:31.499Z,15.20
2022-10-05T06:10:05.971Z,15.20
2022-10-05T06:12:39.441Z,15.10
2022-10-05T06:15:19.977Z,15.20
2022-10-05T06:17:52.726Z,15.20
2022-10-05T06:20:26.643Z,15.20
2022-10-05T06:22:58.846Z,15.20
2022-10-05T06:25:33.402Z,15.20
2022-10-05T06:28:11.565Z,15.20
2022-10-05T06:30:52.275Z,15.20
2022-10-05T06:33:35.326Z,15.30
2022-10-05T06:36:13.478Z,15.30
2022-10-05T06:39:04.887Z,15.30
2022-10-05T06:41:46.030Z,15.30
2022-10-05T06:44:18.812Z,15.30
2022-10-05T06:46:56.747Z,15.30
2022-10-05T06:49:28.596Z,15.50
2022-10-05T06:51:59.471Z,15.30
2022-10-05T06:54:45.477Z,15.40
2022-10-05T06:57:25.958Z,15.40
2022-10-05T07:00:01.075Z,15.40
2022-10-05T07:02:38.739Z,15.70
2022-10-05T07:05:32.009Z,15.40
2022-10-05T07:08:02.175Z,15.40
2022-10-05T07:10:33.968Z,15.60
2022-10-05T07:13:16.927Z,15.40
2022-10-05T07:15:53.773Z,15.40
2022-10-05T07:18:49.379Z,15.40
2022-10-05T07:21:27.638Z,15.40
2022-10-05T07:24:05.402Z,15.50
2022-10-05T07:26:38.365Z,15.50
2022-10-05T07:29:24.470Z,15.50
2022-10-05T07:32:02.294Z,16.10
2022-10-05T07:34:40.907Z,15.50
2022-10-05T07:37:30.580Z,15.50
2022-10-05T07:40:09.892Z,15.50
2022-10-05T07:42:52.150Z,15.50
2022-10-05T07:45:24.983Z,15.50
2022-10-05T07:47:56.791Z,15.50
2022-10-05T07:50:31.285Z,15.60
2022-10-05T07:53:03.565Z,15.50
2022-10-05T07:55:34.774Z,15.60
2022-10-05T07:58:09.409Z,16.20
2022-10-05T08:01:00.391Z,15.90
2022-10-05T08:03:38.170Z,16.70
2022-10-05T08:06:10.153Z,15.60
2022-10-05T08:08:46.988Z,15.60
2022-10-05T08:11:18.122Z,15.70
2022-10-05T08:13:51.551Z,15.70
2022-10-05T08:16:20.821Z,15.70
2022-10-05T08:18:58.013Z,15.70
2022-10-05T08:21:32.251Z,15.70
2022-10-05T08:24:07.932Z,15.70
2022-10-05T08:26:46.723Z,15.70
2022-10-05T08:29:21.023Z,16.20
2022-10-05T08:31:52.665Z,15.80
2022-10-05T08:34:27.609Z,15.80
2022-10-05T08:37:01.629Z,16.20
2022-10-05T08:39:35.275Z,15.90
2022-10-05T08:42:55.667Z,16.10
2022-10-05T08:45:55.064Z,16.00
2022-10-05T08:48:50.006Z,16.00
2022-10-05T08:51:46.741Z,16.10
2022-10-05T08:54:52.602Z,16.10
2022-10-05T08:57:50.211Z,16.10
2022-10-05T09:00:21.098Z,16.20
2022-10-05T09:03:15.940Z,16.20
2022-10-05T09:06:17.872Z,16.30
2022-10-05T09:09:15.290Z,16.30
2022-10-05T09:11:54.689Z,16.30
2022-10-05T09:14:40.237Z,16.30
2022-10-05T09:17:28.251Z,16.40
2022-10-05T09:20:17.920Z,16.40
2022-10-05T09:23:01.067Z,16.40
2022-10-05T09:25:54.266Z,16.40
2022-10-05T09:28:26.725Z,16.40
2022-10-05T09:31:04.751Z,16.50
2022-10-05T09:34:03.027Z,16.40
2022-10-05T09:37:09.101Z,16.40
2022-10-05T09:40:21.871Z,16.50
2022-10-05T09:43:17.604Z,16.50
2022-10-05T09:46:12.528Z,16.50
2022-10-05T09:49:11.485Z,16.50
2022-10-05T09:52:15.137Z,16.70
2022-10-05T09:55:10.249Z,16.50
2022-10-05T09:58:03.630Z,16.50
2022-10-05T10:01:08.886Z,16.50
2022-10-05T10:04:13.654Z,16.50
2022-10-05T10:07:17.165Z,16.50
2022-10-05T10:10:01.881Z,16.50
2022-10-05T10:12:53.879Z,16.50
2022-10-05T10:15:54.199Z,16.50
2022-10-05T10:18:45.894Z,16.50
2022-10-05T10:21:43.394Z,16.50
2022-10-05T10:24:25.415Z,16.50
2022-10-05T10:27:05.272Z,16.60
2022-10-05T10:29:48.436Z,16.50
2022-10-05T10:33:04.032Z,16.50
2022-10-05T10:35:35.603Z,16.50
2022-10-05T10:38:28.502Z,16.60
2022-10-05T10:41:30.622Z,16.50
2022-10-05T10:44:35.972Z,16.60
2022-10-05T10:47:28.818Z,16.50
2022-10-05T10:50:28.375Z,16.50
2022-10-05T10:53:15.727Z,16.50
2022-10-05T10:55:51.682Z,16.60
2022-10-05T10:58:52.792Z,16.60
2022-10-05T11:01:31.870Z,16.60
2022-10-05T11:04:29.020Z,16.60
2022-10-05T11:07:28.661Z,16.60
2022-10-05T11:10:23.843Z,16.60
2022-10-05T11:13:13.479Z,16.60
2022-10-05T11:16:04.032Z,16.70
2022-10-05T11:18:47.286Z,16.70
2022-10-05T11:21:30.270Z,16.70
2022-10-05T11:24:48.528Z,16.70
2022-10-05T11:27:42.081Z,16.70
2022-10-05T11:30:53.143Z,16.70
2022-10-05T11:34:04.236Z,16.80
2022-10-05T11:36:58.260Z,16.80
2022-10-05T11:39:55.935Z,16.90
2022-10-05T11:43:07.522Z,16.90
2022-10-05T11:45:47.288Z,16.90
2022-10-05T11:48:32.959Z,16.90
2022-10-05T11:51:25.219Z,16.90
2022-10-05T11:54:17.716Z,16.90
2022-10-05T11:56:53.822Z,17.00
2022-10-05T11:59:31.647Z,17.00
2022-10-05T12:02:08.302Z,17.00
2022-10-05T12:04:48.853Z,17.00
2022-10-05T12:07:26.342Z,17.10
2022-10-05T12:10:17.504Z,17.10
2022-10-05T12:13:00.523Z,17.10
2022-10-05T12:15:37.816Z,17.10
2022-10-05T12:18:13.479Z,17.40
2022-10-05T12:20:47.688Z,17.20
2022-10-05T12:23:22.796Z,17.20
2022-10-05T12:25:57.431Z,17.20
2022-10-05T12:28:33.481Z,17.20
2022-10-05T12:31:15.799Z,17.30
2022-10-05T12:33:51.023Z,17.30
2022-10-05T12:36:26.390Z,17.30
2022-10-05T12:39:04.915Z,17.30
2022-10-05T12:41:40.616Z,17.30
2022-10-05T12:44:18.470Z,17.30
2022-10-05T12:46:54.852Z,17.20
2022-10-05T12:49:53.010Z,17.20
2022-10-05T12:52:38.463Z,17.30
2022-10-05T12:55:14.431Z,17.30
2022-10-05T12:57:54.664Z,18.10
2022-10-05T13:00:23.518Z,17.30
2022-10-05T13:03:01.207Z,17.30
2022-10-05T13:05:36.734Z,17.20
2022-10-05T13:08:14.475Z,17.30
2022-10-05T13:10:48.194Z,17.30
2022-10-05T13:13:53.414Z,17.30
2022-10-05T13:16:30.568Z,17.30
2022-10-05T13:19:19.518Z,17.40
2022-10-05T13:22:02.787Z,17.50
2022-10-05T13:24:34.731Z,17.70
2022-10-05T13:27:09.099Z,17.70
2022-10-05T13:29:41.183Z,17.70
2022-10-05T13:32:17.278Z,17.70
2022-10-05T13:34:55.923Z,17.70
2022-10-05T13:37:32.712Z,17.70
2022-10-05T13:40:15.738Z,17.80
2022-10-05T13:42:52.358Z,17.80
2022-10-05T13:45:23.132Z,17.80
2022-10-05T13:48:12.910Z,17.90
2022-10-05T13:50:47.044Z,17.80
2022-10-05T13:53:23.864Z,17.90
2022-10-05T13:55:59.251Z,18.10
2022-10-05T13:58:36.317Z,17.90
2022-10-05T14:01:14.339Z,17.80
2022-10-05T14:03:42.378Z,17.70
2022-10-05T14:06:15.720Z,17.70
2022-10-05T14:08:51.836Z,17.70
2022-10-05T14:11:27.715Z,17.70
2022-10-05T14:14:05.288Z,17.70
2022-10-05T14:16:35.490Z,17.70
2022-10-05T14:19:21.769Z,17.70
2022-10-05T14:21:59.731Z,17.70
2022-10-05T14:24:45.886Z,17.70
2022-10-05T14:27:22.609Z,17.80
2022-10-05T14:29:59.769Z,17.90
2022-10-05T14:32:30.843Z,17.90
2022-10-05T14:35:13.876Z,17.90
2022-10-05T14:37:50.919Z,17.90
2022-10-05T14:40:37.375Z,17.90
2022-10-05T14:43:19.802Z,17.90
2022-10-05T14:45:54.240Z,17.90
2022-10-05T14:48:22.320Z,17.90
2022-10-05T14:50:55.007Z,17.90
2022-10-05T14:53:25.704Z,17.90
2022-10-05T14:56:02.735Z,17.90
2022-10-05T14:58:56.639Z,17.90
2022-10-05T15:01:28.425Z,17.80
2022-10-05T15:04:12.006Z,17.80
2022-10-05T15:06:43.316Z,17.80
2022-10-05T15:09:39.532Z,17.80
2022-10-05T15:12:08.116Z,17.80
2022-10-05T15:14:39.083Z,17.80
2022-10-05T15:17:17.168Z,17.70
2022-10-05T15:19:55.624Z,17.70
2022-10-05T15:22:32.068Z,17.70
2022-10-05T15:25:12.332Z,17.70
2022-10-05T15:27:54.735Z,17.70
2022-10-05T15:30:23.322Z,17.70
2022-10-05T15:33:08.909Z,17.60
2022-10-05T15:35:55.332Z,17.60
2022-10-05T15:38:25.965Z,17.60
2022-10-05T15:41:05.039Z,17.50
2022-10-05T15:43:46.966Z,17.50
2022-10-05T15:46:19.366Z,17.50
2022-10-05T15:48:54.166Z,17.50
2022-10-05T15:51:35.898Z,17.50
2022-10-05T15:54:25.294Z,17.50
2022-10-05T15:57:00.470Z,17.40
2022-10-05T15:59:34.618Z,18.00
2022-10-05T16:02:07.857Z,17.30
2022-10-05T16:04:48.583Z,17.30
2022-10-05T16:07:40.516Z,17.30
2022-10-05T16:10:17.149Z,17.30
2022-10-05T16:13:00.905Z,17.30
2022-10-05T16:15:35.511Z,17.30
2022-10-05T16:18:32.718Z,17.30
2022-10-05T16:21:10.914Z,17.20
2022-10-05T16:23:48.641Z,17.20
2022-10-05T16:26:32.603Z,17.40
2022-10-05T16:29:10.438Z,17.60
2022-10-05T16:31:47.278Z,17.20
2022-10-05T16:34:30.694Z,17.20
2022-10-05T16:37:09.943Z,17.20
2022-10-05T16:39:49.649Z,17.20
2022-10-05T16:42:32.388Z,17.20
2022-10-05T16:45:20.798Z,17.60
2022-10-05T16:47:54.563Z,17.10
2022-10-05T16:50:28.623Z,17.10
2022-10-05T16:53:12.070Z,17.20
2022-10-05T16:55:48.179Z,17.10
2022-10-05T16:58:21.669Z,17.10
2022-10-05T17:01:07.566Z,17.10
2022-10-05T17:03:50.539Z,17.10
2022-10-05T17:06:45.931Z,17.00
2022-10-05T17:09:35.409Z,17.10
2022-10-05T17:12:16.161Z,17.10
2022-10-05T17:14:56.150Z,17.10
2022-10-05T17:17:52.970Z,17.10
2022-10-05T17:20:50.685Z,17.10
2022-10-05T17:23:30.408Z,17.00
2022-10-05T17:26:07.345Z,17.70
2022-10-05T17:28:41.143Z,17.00
2022-10-05T17:31:16.220Z,17.00
2022-10-05T17:34:27.348Z,16.90
2022-10-05T17:36:59.673Z,16.90
2022-10-05T17:39:51.444Z,16.90
2022-10-05T17:42:48.338Z,16.90
2022-10-05T17:45:54.175Z,17.00
2022-10-05T17:49:06.712Z,17.00
2022-10-05T17:52:30.231Z,16.90
2022-10-05T17:55:30.485Z,17.00
2022-10-05T17:58:00.498Z,17.00
2022-10-05T18:00:37.464Z,17.00
2022-10-05T18:03:37.765Z,17.00
2022-10-05T18:06:31.828Z,17.00
2022-10-05T18:09:34.470Z,17.00
2022-10-05T18:12:37.697Z,17.00
2022-10-05T18:15:46.061Z,17.00
2022-10-05T18:18:56.564Z,17.00
2022-10-05T18:21:34.294Z,16.90
2022-10-05T18:24:07.195Z,16.90
2022-10-05T18:26:46.519Z,16.90
2022-10-05T18:29:39.713Z,16.70
2022-10-05T18:32:17.196Z,16.80
2022-10-05T18:34:54.700Z,16.70
2022-10-05T18:37:41.508Z,16.60
2022-10-05T18:40:25.790Z,16.60
2022-10-05T18:43:05.726Z,16.50
2022-10-05T18:45:42.774Z,16.40
2022-10-05T18:48:23.070Z,16.30
2022-10-05T18:50:56.975Z,16.30
2022-10-05T18:53:33.218Z,16.70
2022-10-05T18:56:05.608Z,16.30
2022-10-05T18:58:41.791Z,16.10
2022-10-05T19:01:40.362Z,16.00
2022-10-05T19:04:22.260Z,15.00
2022-10-05T19:06:57.745Z,15.90
2022-10-05T19:09:43.853Z,15.80
2022-10-05T19:12:20.732Z,15.80
2022-10-05T19:14:58.139Z,15.70
2022-10-05T19:17:32.913Z,15.70
2022-10-05T19:20:12.042Z,15.70
2022-10-05T19:22:53.966Z,15.60
2022-10-05T19:25:40.477Z,15.60
2022-10-05T19:28:23.116Z,15.60
2022-10-05T19:31:08.319Z,16.30
2022-10-05T19:33:52.055Z,15.60
2022-10-05T19:36:33.726Z,15.50
2022-10-05T19:39:08.511Z,15.50
2022-10-05T19:41:52.190Z,15.50
2022-10-05T19:44:30.430Z,15.40
2022-10-05T19:47:04.540Z,14.90
2022-10-05T19:49:49.084Z,15.40
2022-10-05T19:52:26.680Z,15.40
2022-10-05T19:55:06.717Z,15.40
2022-10-05T19:57:34.982Z,15.30
2022-10-05T20:00:04.024Z,15.30
2022-10-05T20:02:37.507Z,15.20
2022-10-05T20:05:09.972Z,15.20
2022-10-05T20:07:39.162Z,15.10
2022-10-05T20:10:26.673Z,15.10
2022-10-05T20:12:57.615Z,15.00
2022-10-05T20:15:45.141Z,14.80
2022-10-05T20:19:06.076Z,14.80
2022-10-05T20:21:45.940Z,14.80
2022-10-05T20:24:16.208Z,14.70
2022-10-05T20:27:04.235Z,14.90
2022-10-05T20:29:35.687Z,15.10
2022-10-05T20:32:08.246Z,14.60
2022-10-05T20:34:42.812Z,14.70
2022-10-05T20:37:11.548Z,14.30
2022-10-05T20:39:40.020Z,14.50
2022-10-05T20:42:08.658Z,14.50
2022-10-05T20:44:37.141Z,14.50
2022-10-05T20:47:09.153Z,14.50
2022-10-05T20:49:38.515Z,14.40
2022-10-05T20:52:10.574Z,14.40
2022-10-05T20:54:39.666Z,14.70
2022-10-05T20:57:08.632Z,14.30
2022-10-05T20:59:37.630Z,14.40
2022-10-05T21:02:06.291Z,14.30
2022-10-05T21:04:40.898Z,14.50
2022-10-05T21:07:10.868Z,14.30
2022-10-05T21:09:42.361Z,14.30
2022-10-05T21:12:10.468Z,14.20
2022-10-05T21:14:40.753Z,14.20
2022-10-05T21:17:09.478Z,14.20
2022-10-05T21:19:40.232Z,14.20
2022-10-05T21:22:10.878Z,14.50
2022-10-05T21:24:41.353Z,14.10
2022-10-05T21:27:10.751Z,14.10
2022-10-05T21:29:42.097Z,14.20
2022-10-05T21:32:11.606Z,14.20
2022-10-05T21:34:40.285Z,14.30
2022-10-05T21:37:08.366Z,15.30
2022-10-05T21:39:37.801Z,14.10
2022-10-05T21:42:05.897Z,14.10
2022-10-05T21:44:33.839Z,14.10
2022-10-05T21:47:01.875Z,14.10
2022-10-05T21:49:30.000Z,14.20
2022-10-05T21:51:58.043Z,14.30
2022-10-05T21:54:26.004Z,14.20
2022-10-05T21:56:58.270Z,14.20
2022-10-05T21:59:30.246Z,14.20
2022-10-05T22:01:58.421Z,14.30
2022-10-05T22:04:26.438Z,14.20
2022-10-05T22:06:55.057Z,14.20
2022-10-05T22:09:23.067Z,14.30
2022-10-05T22:11:51.318Z,14.30
2022-10-05T22:14:21.147Z,14.30
2022-10-05T22:16:49.208Z,14.30
2022-10-05T22:19:19.930Z,14.20
2022-10-05T22:21:48.126Z,14.30
2022-10-05T22:24:16.002Z,14.40
2022-10-05T22:26:46.806Z,14.40
2022-10-05T22:29:16.563Z,14.30
2022-10-05T22:31:48.674Z,14.30
2022-10-05T22:34:16.661Z,14.30
2022-10-05T22:36:45.852Z,14.30
2022-10-05T22:39:13.963Z,14.30
2022-10-05T22:41:41.806Z,14.30
2022-10-05T22:44:09.778Z,14.20
2022-10-05T22:46:37.699Z,14.20
2022-10-05T22:49:06.997Z,14.10
2022-10-05T22:51:34.895Z,14.30
2022-10-05T22:54:02.904Z,14.40
2022-10-05T22:56:30.826Z,14.40
2022-10-05T22:58:58.743Z,14.40
2022-10-05T23:01:27.120Z,14.30
2022-10-05T23:03:55.587Z,14.50
2022-10-05T23:06:26.519Z,14.30
2022-10-05T23:08:55.421Z,14.40
2022-10-05T23:11:25.917Z,14.40
2022-10-05T23:13:55.707Z,14.40
2022-10-05T23:16:25.918Z,14.40
2022-10-05T23:18:55.014Z,14.50
2022-10-05T23:21:26.028Z,14.50
2022-10-05T23:23:53.974Z,14.50
2022-10-05T23:26:24.615Z,14.50
2022-10-05T23:28:53.006Z,14.50
2022-10-05T23:31:22.529Z,14.50
2022-10-05T23:33:50.834Z,14.80
2022-10-05T23:36:20.562Z,14.70
2022-10-05T23:38:49.845Z,14.30
2022-10-05T23:41:19.579Z,14.40
2022-10-05T23:43:48.098Z,14.40
2022-10-05T23:46:17.685Z,14.40
2022-10-05T23:48:45.686Z,14.30
2022-10-05T23:51:15.643Z,14.40
2022-10-05T23:53:43.768Z,14.30
2022-10-05T23:56:13.211Z,14.40
2022-10-05T23:58:41.629Z,14.30
